Time;durP1;ratioP1;P1;durP2;ratioP2;P2;SDS_P1;SDS_P2;PMS_P1;PMS_P2;Temp;Humidity;BMP_temperature;BMP_pressure;BME280_temperature;BME280_humidity;BME280_pressure;Samples;Min_cycle;Max_cycle;Signal;HPM_P1;HPM_P2
2022/11/18 00:01:31;;;;;;;8.18;5.95;;;9.80;99.90;;;;;;4992897;28;20450;-55
2022/11/18 00:03:56;;;;;;;12.85;7.13;;;9.80;99.90;;;;;;4992209;28;20027;-53
2022/11/18 00:06:25;;;;;;;13.75;7.75;;;9.70;99.90;;;;;;4992437;28;20034;-63
2022/11/18 00:08:51;;;;;;;11.07;8.10;;;9.70;99.90;;;;;;4992625;28;20423;-60
2022/11/18 00:14:22;;;;;;;15.45;8.57;;;9.70;99.90;;;;;;4983063;28;20525;-48
2022/11/18 00:16:54;;;;;;;14.50;8.55;;;9.80;99.90;;;;;;4974171;28;20015;-45
2022/11/18 00:19:22;;;;;;;14.68;9.55;;;9.80;99.90;;;;;;4991976;28;20052;-56
2022/11/18 00:21:48;;;;;;;13.15;8.95;;;9.80;99.90;;;;;;4990587;28;20065;-48
2022/11/18 00:24:14;;;;;;;10.30;9.18;;;9.80;99.90;;;;;;4991646;28;20033;-49
2022/11/18 00:26:39;;;;;;;12.00;8.77;;;9.80;99.90;;;;;;4991689;28;20027;-46
2022/11/18 00:29:05;;;;;;;13.00;8.63;;;9.80;99.90;;;;;;4991842;28;20041;-46
2022/11/18 00:31:30;;;;;;;14.60;9.70;;;9.80;99.90;;;;;;4991699;28;20045;-50
2022/11/18 00:33:56;;;;;;;14.85;9.57;;;9.90;99.90;;;;;;4990844;28;20030;-46
2022/11/18 00:36:21;;;;;;;20.25;9.98;;;9.80;99.90;;;;;;4989231;28;20082;-49
2022/11/18 00:38:47;;;;;;;20.20;9.60;;;9.80;99.90;;;;;;4991674;28;20650;-44
2022/11/18 00:41:14;;;;;;;15.65;8.68;;;9.80;99.90;;;;;;4992298;28;20030;-44
2022/11/18 00:43:41;;;;;;;17.05;9.23;;;9.80;99.90;;;;;;5007706;28;20026;-44
2022/11/18 00:46:09;;;;;;;12.43;8.55;;;9.80;99.90;;;;;;5007945;28;20027;-47
2022/11/18 00:48:35;;;;;;;13.18;9.18;;;9.80;99.90;;;;;;5008066;28;20054;-50
2022/11/18 00:51:08;;;;;;;18.73;10.20;;;9.80;99.90;;;;;;4993083;28;20061;-45
2022/11/18 00:53:33;;;;;;;11.88;8.90;;;9.80;99.90;;;;;;4992271;28;20109;-50
2022/11/18 00:55:59;;;;;;;17.55;8.93;;;9.80;99.90;;;;;;4993234;28;20113;-47
2022/11/18 00:58:24;;;;;;;11.65;8.45;;;9.90;99.90;;;;;;4992799;28;20066;-47
2022/11/18 01:00:51;;;;;;;15.77;8.40;;;9.90;99.90;;;;;;4992922;28;20398;-49
2022/11/18 01:03:18;;;;;;;13.18;8.82;;;9.80;99.90;;;;;;5007101;28;20479;-49
2022/11/18 01:05:43;;;;;;;13.40;8.15;;;9.80;99.90;;;;;;4992491;28;20027;-46
2022/11/18 01:08:10;;;;;;;11.38;8.00;;;9.90;99.90;;;;;;4992754;28;20497;-46
2022/11/18 01:10:37;;;;;;;18.08;8.50;;;9.90;99.90;;;;;;4992640;28;20022;-49
2022/11/18 01:13:19;;;;;;;10.48;6.72;;;9.90;99.90;;;;;;4991266;28;20022;-48
2022/11/18 01:15:48;;;;;;;12.25;8.00;;;9.90;99.90;;;;;;4992381;28;20026;-45
2022/11/18 01:18:15;;;;;;;16.10;8.10;;;9.90;99.90;;;;;;4991617;28;20402;-48
2022/11/18 01:20:40;;;;;;;21.50;8.65;;;9.90;99.90;;;;;;4991605;28;20105;-49
2022/11/18 01:23:06;;;;;;;69.25;35.33;;;9.90;99.90;;;;;;4990779;28;20124;-49
2022/11/18 01:25:34;;;;;;;17.58;10.70;;;9.90;99.90;;;;;;4992133;28;20022;-44
2022/11/18 01:27:59;;;;;;;14.63;7.82;;;9.90;99.90;;;;;;4992158;28;20018;-49
2022/11/18 01:30:25;;;;;;;12.63;7.55;;;9.90;99.90;;;;;;5005070;23;20069;-48
2022/11/18 01:32:50;;;;;;;10.93;6.70;;;10.00;99.90;;;;;;4991703;28;20026;-46
2022/11/18 01:35:16;;;;;;;11.77;7.38;;;10.00;99.90;;;;;;4992066;28;20038;-46
2022/11/18 01:37:41;;;;;;;14.70;6.63;;;10.00;99.90;;;;;;4989956;28;20055;-49
2022/11/18 01:40:08;;;;;;;16.23;7.53;;;10.00;99.90;;;;;;4992183;28;20034;-47
2022/11/18 01:42:33;;;;;;;10.45;8.32;;;10.00;99.90;;;;;;4991689;28;20026;-48
2022/11/18 01:45:08;;;;;;;10.73;7.53;;;10.00;99.90;;;;;;4992261;28;20117;-50
2022/11/18 01:47:46;;;;;;;11.25;7.30;;;9.90;99.90;;;;;;4992109;28;20546;-46
2022/11/18 01:50:14;;;;;;;10.80;8.45;;;9.90;99.90;;;;;;4992137;28;20019;-49
2022/11/18 01:52:40;;;;;;;15.93;8.20;;;10.00;99.90;;;;;;4991371;28;20054;-47
2022/11/18 01:55:13;;;;;;;13.35;9.60;;;9.90;99.90;;;;;;4992337;28;20033;-50
2022/11/18 01:57:40;;;;;;;14.13;8.38;;;9.80;99.90;;;;;;4992199;28;20038;-47
2022/11/18 02:00:06;;;;;;;12.48;8.93;;;9.80;99.90;;;;;;4992040;28;20524;-46
2022/11/18 02:02:35;;;;;;;12.75;8.32;;;9.80;99.90;;;;;;4991177;28;20061;-49
2022/11/18 02:05:03;;;;;;;13.85;9.82;;;9.70;99.90;;;;;;4992061;28;20050;-49
2022/11/18 02:07:28;;;;;;;13.70;8.85;;;9.70;99.90;;;;;;4991843;28;20124;-51
2022/11/18 02:09:56;;;;;;;14.25;7.95;;;9.70;99.90;;;;;;4992137;28;20061;-46
2022/11/18 02:12:22;;;;;;;13.07;8.27;;;9.60;99.90;;;;;;4991307;28;20030;-46
2022/11/18 02:14:49;;;;;;;11.82;8.63;;;9.70;99.90;;;;;;4992023;28;20367;-44
2022/11/18 02:17:43;;;;;;;13.25;8.57;;;9.60;99.90;;;;;;4990469;28;20397;-47
2022/11/18 02:20:18;;;;;;;14.77;8.23;;;9.60;99.90;;;;;;4992088;28;20042;-51
2022/11/18 02:22:53;;;;;;;14.75;8.93;;;9.70;99.90;;;;;;4991124;28;20032;-45
2022/11/18 02:25:55;;;;;;;16.92;9.65;;;9.70;99.90;;;;;;4991935;28;20038;-46
2022/11/18 02:28:42;;;;;;;14.82;9.32;;;9.70;99.90;;;;;;4991827;28;20022;-44
2022/11/18 02:31:37;;;;;;;21.25;9.30;;;9.70;99.90;;;;;;4990192;28;20036;-48
2022/11/18 02:34:16;;;;;;;22.10;10.57;;;9.70;99.90;;;;;;4990946;28;20031;-49
2022/11/18 02:36:57;;;;;;;18.23;10.07;;;9.80;99.90;;;;;;4990076;28;20023;-49
2022/11/18 02:39:50;;;;;;;12.90;8.90;;;9.70;99.90;;;;;;4991816;28;20029;-47
2022/11/18 02:42:16;;;;;;;13.15;9.63;;;9.80;99.90;;;;;;4991040;28;20031;-47
2022/11/18 02:44:47;;;;;;;18.15;10.15;;;9.80;99.90;;;;;;4991817;28;20026;-45
2022/11/18 02:47:14;;;;;;;14.10;9.68;;;9.80;99.90;;;;;;4992072;28;20026;-49
2022/11/18 02:49:49;;;;;;;14.57;9.68;;;9.80;99.90;;;;;;4994094;28;20453;-49
2022/11/18 02:52:16;;;;;;;17.67;10.63;;;9.80;99.90;;;;;;4994584;28;20405;-50
2022/11/18 02:54:46;;;;;;;24.52;11.55;;;9.90;99.90;;;;;;4995189;28;20030;-47
2022/11/18 02:57:14;;;;;;;20.02;10.80;;;9.90;99.90;;;;;;4995250;28;20031;-47
2022/11/18 02:59:39;;;;;;;21.05;10.75;;;9.90;99.90;;;;;;4995307;28;20113;-50
2022/11/18 03:02:05;;;;;;;21.13;12.43;;;9.90;99.90;;;;;;4994323;28;20117;-49
2022/11/18 03:04:32;;;;;;;19.38;11.20;;;9.90;99.90;;;;;;4994718;28;20022;-51
2022/11/18 03:07:14;;;;;;;17.40;10.88;;;9.90;99.90;;;;;;4994953;28;20058;-42
2022/11/18 03:09:43;;;;;;;19.27;11.15;;;10.00;99.90;;;;;;4994933;28;20022;-47
2022/11/18 03:12:26;;;;;;;17.40;11.27;;;10.00;99.90;;;;;;4994229;28;20383;-46
2022/11/18 03:15:16;;;;;;;13.73;10.05;;;9.90;99.90;;;;;;4993542;28;20039;-48
2022/11/18 03:17:47;;;;;;;13.15;10.85;;;9.90;99.90;;;;;;4994643;28;20074;-47
2022/11/18 03:20:26;;;;;;;17.52;11.57;;;10.00;99.90;;;;;;4994684;28;20022;-46
2022/11/18 03:22:59;;;;;;;16.92;11.57;;;9.90;99.90;;;;;;4993949;28;20041;-45
2022/11/18 03:25:30;;;;;;;14.68;10.73;;;9.80;99.90;;;;;;4994724;28;20054;-47
2022/11/18 03:28:18;;;;;;;19.55;10.60;;;9.80;99.90;;;;;;4994370;28;20475;-46
2022/11/18 03:31:07;;;;;;;16.65;11.32;;;9.80;99.90;;;;;;4994366;28;20406;-48
2022/11/18 03:33:57;;;;;;;15.98;10.80;;;9.80;99.90;;;;;;4979761;28;20092;-46
2022/11/18 03:36:26;;;;;;;15.35;11.20;;;9.80;99.90;;;;;;4993412;28;20058;-47
2022/11/18 03:38:56;;;;;;;18.52;11.15;;;9.80;99.90;;;;;;4994333;28;20053;-45
2022/11/18 03:41:24;;;;;;;12.70;10.48;;;9.80;99.90;;;;;;4994330;28;20113;-46
2022/11/18 03:43:58;;;;;;;14.13;10.32;;;9.70;99.90;;;;;;4992910;28;20494;-45
2022/11/18 03:46:33;;;;;;;14.33;10.67;;;9.80;99.90;;;;;;4994229;28;20066;-48
2022/11/18 03:49:00;;;;;;;12.02;9.43;;;9.80;99.90;;;;;;4994320;28;20030;-46
2022/11/18 03:51:32;;;;;;;13.70;9.82;;;9.80;99.90;;;;;;4994588;28;20026;-51
2022/11/18 03:54:22;;;;;;;14.00;9.60;;;9.80;99.90;;;;;;4993749;28;20029;-48
2022/11/18 03:57:01;;;;;;;14.25;10.77;;;9.80;99.90;;;;;;4994593;28;20030;-47
2022/11/18 03:59:34;;;;;;;14.90;10.60;;;9.80;99.90;;;;;;4993606;28;20540;-49
2022/11/18 04:02:08;;;;;;;12.77;10.57;;;9.70;99.90;;;;;;4992409;28;20026;-46
2022/11/18 04:04:34;;;;;;;18.30;11.85;;;9.70;99.90;;;;;;4994233;28;20026;-49
2022/11/18 04:07:39;;;;;;;19.05;11.88;;;9.70;99.90;;;;;;4994070;28;20165;-44
2022/11/18 04:10:17;;;;;;;19.75;11.45;;;9.70;99.90;;;;;;4934020;29;20031;-49
2022/11/18 04:12:48;;;;;;;22.40;11.30;;;9.60;99.90;;;;;;4987398;28;20037;-47
2022/11/18 04:15:14;;;;;;;17.65;12.55;;;9.60;99.90;;;;;;4993937;28;20053;-46
2022/11/18 04:17:41;;;;;;;18.42;11.88;;;9.60;99.90;;;;;;4993761;28;20030;-47
2022/11/18 04:20:15;;;;;;;15.32;11.50;;;9.60;99.90;;;;;;4993821;28;20109;-44
2022/11/18 04:22:41;;;;;;;16.08;12.40;;;9.70;99.90;;;;;;4993216;28;20038;-52
2022/11/18 04:25:07;;;;;;;19.23;13.32;;;9.60;99.90;;;;;;4993909;28;20026;-48
2022/11/18 04:27:32;;;;;;;22.55;13.38;;;9.60;99.90;;;;;;4993771;28;20019;-45
2022/11/18 04:29:58;;;;;;;18.88;13.73;;;9.60;99.90;;;;;;4993259;28;20080;-48
2022/11/18 04:32:23;;;;;;;19.83;12.43;;;9.60;99.90;;;;;;4992860;28;20057;-49
2022/11/18 04:34:48;;;;;;;21.73;13.10;;;9.60;99.90;;;;;;4993525;28;20410;-45
2022/11/18 04:37:14;;;;;;;19.65;12.65;;;9.60;99.90;;;;;;4991656;28;20038;-47
2022/11/18 04:39:40;;;;;;;19.70;12.38;;;9.60;99.90;;;;;;4993290;28;20105;-45
2022/11/18 04:42:05;;;;;;;20.30;12.68;;;9.60;99.90;;;;;;4992569;28;20105;-45
2022/11/18 04:44:32;;;;;;;19.48;13.38;;;9.70;99.90;;;;;;4993168;28;20036;-48
2022/11/18 04:47:02;;;;;;;20.48;12.30;;;9.70;99.90;;;;;;4993209;28;20117;-49
2022/11/18 04:49:29;;;;;;;19.58;12.70;;;9.70;99.90;;;;;;4993155;28;20473;-44
2022/11/18 04:51:55;;;;;;;20.23;13.93;;;9.60;99.90;;;;;;4992607;28;20069;-47
2022/11/18 04:54:22;;;;;;;20.30;13.00;;;9.60;99.90;;;;;;4992629;28;20521;-49
2022/11/18 04:56:48;;;;;;;23.88;14.10;;;9.60;99.90;;;;;;4992850;28;20037;-46
2022/11/18 04:59:16;;;;;;;18.02;13.55;;;9.60;99.90;;;;;;5008350;28;20490;-47
2022/11/18 05:01:41;;;;;;;18.35;12.02;;;9.50;99.90;;;;;;4992502;28;20488;-49
2022/11/18 05:04:12;;;;;;;18.00;12.77;;;9.60;99.90;;;;;;4992248;28;20081;-45
2022/11/18 05:06:37;;;;;;;21.17;14.30;;;9.60;99.90;;;;;;4992668;28;20026;-50
2022/11/18 05:09:03;;;;;;;23.63;14.07;;;9.60;99.90;;;;;;4992773;28;20398;-47
2022/11/18 05:14:13;;;;;;;21.33;13.57;;;9.60;99.90;;;;;;4992230;28;20398;-49
2022/11/18 05:16:39;;;;;;;16.77;12.98;;;9.50;99.90;;;;;;4992508;28;20023;-44
2022/11/18 05:19:05;;;;;;;20.08;13.93;;;9.50;99.90;;;;;;4992713;28;20031;-47
2022/11/18 05:21:31;;;;;;;22.27;13.88;;;9.50;99.90;;;;;;4992438;28;20410;-48
2022/11/18 05:24:00;;;;;;;19.50;12.80;;;9.40;99.90;;;;;;4991820;28;20019;-44
2022/11/18 05:26:26;;;;;;;20.40;13.45;;;9.40;99.90;;;;;;4992408;28;20451;-43
2022/11/18 05:28:52;;;;;;;19.52;13.25;;;9.40;99.90;;;;;;4992508;28;20037;-48
2022/11/18 05:31:17;;;;;;;15.27;12.82;;;9.40;99.90;;;;;;4992320;28;20031;-48
2022/11/18 05:33:44;;;;;;;19.48;13.70;;;9.40;99.90;;;;;;4993201;28;20038;-48
2022/11/18 05:36:14;;;;;;;18.20;12.73;;;9.40;99.90;;;;;;4994271;28;20038;-48
2022/11/18 05:38:40;;;;;;;20.75;13.40;;;9.50;99.90;;;;;;4993460;28;20206;-47
2022/11/18 05:41:07;;;;;;;16.35;13.32;;;9.50;99.90;;;;;;4992278;28;20136;-46
2022/11/18 05:43:34;;;;;;;20.25;13.65;;;9.40;99.90;;;;;;4991525;28;20042;-48
2022/11/18 05:46:00;;;;;;;21.40;14.30;;;9.50;99.90;;;;;;4992255;28;20109;-47
2022/11/18 05:48:26;;;;;;;21.20;14.52;;;9.50;99.90;;;;;;4992023;28;20448;-45
2022/11/18 05:50:53;;;;;;;18.75;14.07;;;9.50;99.90;;;;;;5007301;28;20054;-45
2022/11/18 05:53:22;;;;;;;22.02;14.95;;;9.50;99.90;;;;;;4991480;28;20035;-46
2022/11/18 05:55:57;;;;;;;22.58;14.85;;;9.50;99.90;;;;;;4992075;28;20034;-49
2022/11/18 05:58:23;;;;;;;26.38;16.25;;;9.60;99.90;;;;;;4992131;28;20425;-46
2022/11/18 06:00:52;;;;;;;24.25;15.32;;;9.50;99.90;;;;;;4992078;28;20061;-48
2022/11/18 06:03:24;;;;;;;21.35;14.60;;;9.50;99.90;;;;;;4991530;28;20113;-45
2022/11/18 06:05:56;;;;;;;25.33;15.32;;;9.60;99.90;;;;;;4992393;28;20025;-45
2022/11/18 06:08:25;;;;;;;27.27;17.20;;;9.60;99.90;;;;;;4992186;28;20034;-45
2022/11/18 06:10:51;;;;;;;29.02;16.13;;;9.60;99.90;;;;;;4992053;28;20022;-45
2022/11/18 06:13:27;;;;;;;27.77;16.77;;;9.60;99.90;;;;;;4991359;28;20041;-41
2022/11/18 06:15:52;;;;;;;27.30;17.42;;;9.60;99.90;;;;;;4992167;28;20026;-46
2022/11/18 06:18:25;;;;;;;25.48;17.52;;;9.60;99.90;;;;;;5007088;28;20081;-48
2022/11/18 06:20:55;;;;;;;30.02;16.38;;;9.50;99.90;;;;;;4991900;28;20156;-46
2022/11/18 06:23:21;;;;;;;27.05;18.55;;;9.50;99.90;;;;;;4993958;28;20283;-46
2022/11/18 06:25:47;;;;;;;25.40;17.10;;;9.60;99.90;;;;;;4995670;28;20073;-42
2022/11/18 06:28:15;;;;;;;29.17;17.00;;;9.60;99.90;;;;;;4996058;28;20503;-45
2022/11/18 06:30:41;;;;;;;27.13;16.80;;;9.60;99.90;;;;;;4996051;28;20644;-47
2022/11/18 06:33:07;;;;;;;28.08;17.15;;;9.60;99.90;;;;;;4995299;28;20022;-46
2022/11/18 06:35:33;;;;;;;24.33;15.52;;;9.60;99.90;;;;;;4995844;28;20104;-46
2022/11/18 06:37:59;;;;;;;24.20;16.52;;;9.60;99.90;;;;;;5009025;28;20100;-41
2022/11/18 06:40:24;;;;;;;21.88;16.10;;;9.70;99.90;;;;;;5010658;28;20116;-46
2022/11/18 06:45:34;;;;;;;27.67;17.67;;;9.60;99.90;;;;;;4995696;28;20397;-46
2022/11/18 06:47:59;;;;;;;22.35;14.85;;;9.60;99.90;;;;;;4995233;28;20026;-41
2022/11/18 06:50:26;;;;;;;20.95;14.40;;;9.60;99.90;;;;;;4995627;28;20018;-48
2022/11/18 06:52:52;;;;;;;22.05;14.43;;;9.60;99.90;;;;;;5009812;28;20406;-46
2022/11/18 06:55:18;;;;;;;20.23;15.15;;;9.50;99.90;;;;;;4995547;28;20045;-50
2022/11/18 06:57:43;;;;;;;22.88;13.80;;;9.60;99.90;;;;;;4995157;28;20109;-47
2022/11/18 07:00:09;;;;;;;16.60;13.02;;;9.60;99.90;;;;;;5010124;28;20030;-50
2022/11/18 07:02:35;;;;;;;19.20;12.27;;;9.60;99.90;;;;;;4994348;28;20054;-48
2022/11/18 07:05:02;;;;;;;15.52;10.98;;;9.60;99.90;;;;;;4995110;28;20081;-50
2022/11/18 07:07:27;;;;;;;17.45;10.40;;;9.70;99.90;;;;;;4994856;28;20058;-47
2022/11/18 07:09:53;;;;;;;17.33;9.07;;;9.70;99.90;;;;;;4995231;28;20045;-49
2022/11/18 07:12:18;;;;;;;11.38;8.93;;;9.70;99.90;;;;;;4994332;28;20092;-46
2022/11/18 07:14:44;;;;;;;14.10;8.75;;;9.80;99.90;;;;;;4995263;28;20073;-50
2022/11/18 07:17:09;;;;;;;11.85;7.70;;;9.80;99.90;;;;;;4994786;28;20038;-49
2022/11/18 07:19:35;;;;;;;15.82;8.25;;;9.80;99.90;;;;;;4994562;28;20041;-50
2022/11/18 07:22:00;;;;;;;10.88;7.05;;;9.70;99.90;;;;;;5008811;28;20417;-47
2022/11/18 07:24:26;;;;;;;8.00;6.55;;;9.70;99.90;;;;;;4994765;28;20058;-51
2022/11/18 07:26:54;;;;;;;10.07;6.18;;;9.70;99.90;;;;;;4990820;28;20547;-46
2022/11/18 07:29:20;;;;;;;6.72;5.75;;;9.70;99.90;;;;;;4993601;28;20023;-44
2022/11/18 07:31:45;;;;;;;12.20;6.03;;;9.70;99.90;;;;;;4991444;23;20113;-46
2022/11/18 07:34:11;;;;;;;8.10;5.40;;;9.60;99.90;;;;;;4972257;28;20452;-47
2022/11/18 07:36:37;;;;;;;7.93;5.55;;;9.60;99.90;;;;;;4974061;28;20034;-47
2022/11/18 07:39:05;;;;;;;8.65;5.00;;;9.60;99.90;;;;;;4974707;28;20027;-46
2022/11/18 07:41:31;;;;;;;9.95;6.80;;;9.60;99.90;;;;;;4973572;28;20515;-45
2022/11/18 07:43:59;;;;;;;11.13;5.65;;;9.60;99.90;;;;;;4974302;28;20097;-47
2022/11/18 07:46:30;;;;;;;5.80;5.07;;;9.70;99.90;;;;;;4989694;28;20023;-46
2022/11/18 07:48:58;;;;;;;6.47;5.18;;;9.70;99.90;;;;;;4974014;28;20027;-46
2022/11/18 07:51:26;;;;;;;8.98;5.55;;;9.60;99.90;;;;;;4973560;28;20049;-46
2022/11/18 07:53:52;;;;;;;8.90;5.13;;;9.50;99.90;;;;;;4973846;28;20019;-46
2022/11/18 07:56:18;;;;;;;8.00;5.03;;;9.50;99.90;;;;;;4974710;28;20035;-47
2022/11/18 07:58:44;;;;;;;7.05;4.70;;;9.50;99.90;;;;;;4969627;28;20054;-46
2022/11/18 08:01:18;;;;;;;4.25;3.83;;;9.40;99.90;;;;;;4973953;28;20118;-48
2022/11/18 08:03:45;;;;;;;6.15;4.30;;;9.50;99.90;;;;;;4954135;28;20113;-47
2022/11/18 08:06:13;;;;;;;4.63;3.47;;;9.50;99.90;;;;;;4968261;28;20031;-50
2022/11/18 08:08:39;;;;;;;3.63;2.47;;;9.50;99.90;;;;;;4973914;28;20114;-48
2022/11/18 08:11:07;;;;;;;4.03;2.70;;;9.50;99.90;;;;;;4974252;28;20138;-47
2022/11/18 08:13:33;;;;;;;5.20;2.00;;;9.50;99.90;;;;;;4972534;28;20031;-52
2022/11/18 08:15:59;;;;;;;4.65;1.90;;;9.50;99.90;;;;;;4974787;28;20023;-55
2022/11/18 08:18:26;;;;;;;2.13;1.90;;;9.50;99.90;;;;;;4973344;28;20035;-47
2022/11/18 08:20:52;;;;;;;5.38;2.30;;;9.50;99.90;;;;;;4973773;28;20394;-45
2022/11/18 08:23:17;;;;;;;3.80;2.17;;;9.40;99.90;;;;;;4972466;28;20034;-43
2022/11/18 08:25:44;;;;;;;3.45;2.15;;;9.50;99.90;;;;;;4969044;28;20027;-49
2022/11/18 08:28:11;;;;;;;4.65;2.10;;;9.50;99.90;;;;;;4973699;28;20030;-46
2022/11/18 08:30:37;;;;;;;3.20;2.00;;;9.50;99.90;;;;;;4973974;28;20027;-45
2022/11/18 08:33:03;;;;;;;1.73;1.63;;;9.50;99.90;;;;;;4962787;28;20582;-47
2022/11/18 08:35:30;;;;;;;4.07;1.95;;;9.50;99.90;;;;;;4955683;29;20046;-46
2022/11/18 08:37:56;;;;;;;2.60;1.70;;;9.50;99.90;;;;;;4970192;28;20034;-45
2022/11/18 08:40:22;;;;;;;2.60;1.63;;;9.50;99.90;;;;;;4966199;28;20038;-45
2022/11/18 08:42:48;;;;;;;1.70;1.58;;;9.50;99.90;;;;;;4974617;28;20026;-45
2022/11/18 08:45:14;;;;;;;2.00;1.60;;;9.50;99.90;;;;;;4970864;28;20491;-45
2022/11/18 08:47:39;;;;;;;1.30;1.20;;;9.50;99.90;;;;;;4967941;28;20058;-46
2022/11/18 08:50:10;;;;;;;1.50;1.20;;;9.40;99.90;;;;;;4974325;28;20034;-47
2022/11/18 08:52:36;;;;;;;2.22;1.42;;;9.40;99.90;;;;;;4972746;28;20368;-48
2022/11/18 08:55:03;;;;;;;1.65;1.55;;;9.40;99.90;;;;;;4973191;28;20031;-48
2022/11/18 08:57:29;;;;;;;0.77;0.75;;;9.40;99.90;;;;;;4961685;28;20050;-51
2022/11/18 08:59:55;;;;;;;1.48;0.73;;;9.50;99.90;;;;;;4954000;28;20090;-52
2022/11/18 09:02:22;;;;;;;2.00;0.90;;;9.40;99.90;;;;;;4953543;29;20031;-46
2022/11/18 09:04:51;;;;;;;1.05;0.70;;;9.50;99.90;;;;;;4954123;28;20106;-48
2022/11/18 09:07:18;;;;;;;2.70;0.70;;;9.50;99.90;;;;;;4954083;29;20019;-50
2022/11/18 09:09:43;;;;;;;2.58;0.82;;;9.50;99.90;;;;;;4952221;28;20035;-51
2022/11/18 09:12:13;;;;;;;0.63;0.60;;;9.50;99.90;;;;;;4968092;28;20407;-46
2022/11/18 09:14:41;;;;;;;10.73;6.70;;;9.50;99.90;;;;;;4953928;28;20043;-46
2022/11/18 09:17:07;;;;;;;19.05;11.52;;;9.50;99.90;;;;;;4953791;28;20025;-47
2022/11/18 09:19:32;;;;;;;5.28;3.90;;;9.50;99.90;;;;;;4953709;29;20027;-47
2022/11/18 09:21:58;;;;;;;2.17;0.80;;;9.50;99.90;;;;;;4952844;29;20031;-46
2022/11/18 09:24:24;;;;;;;1.05;0.70;;;9.50;99.90;;;;;;4952895;28;20520;-46
2022/11/18 09:26:52;;;;;;;2.25;0.90;;;9.70;99.90;;;;;;4972547;28;20106;-46
2022/11/18 09:29:18;;;;;;;2.00;1.10;;;9.60;99.90;;;;;;4980078;28;20519;-48
2022/11/18 09:31:44;;;;;;;1.67;1.42;;;9.70;99.90;;;;;;4966486;28;20077;-45
2022/11/18 09:34:10;;;;;;;2.25;1.50;;;9.70;99.90;;;;;;4971910;28;20412;-51
2022/11/18 09:36:35;;;;;;;3.25;1.98;;;9.70;99.90;;;;;;4953358;29;20023;-47
2022/11/18 09:39:01;;;;;;;5.05;2.95;;;9.80;99.90;;;;;;4953472;28;20074;-45
2022/11/18 09:42:00;;;;;;;3.30;2.40;;;9.90;99.90;;;;;;4967165;28;20035;-49
2022/11/18 09:44:49;;;;;;;2.00;1.90;;;9.90;99.90;;;;;;4953373;28;20108;-46
2022/11/18 09:47:32;;;;;;;3.33;2.30;;;9.90;99.90;;;;;;4968231;28;20045;-49
2022/11/18 09:50:02;;;;;;;1.98;1.75;;;9.80;99.90;;;;;;4953520;28;20035;-45
2022/11/18 09:52:50;;;;;;;2.95;2.10;;;9.90;99.90;;;;;;4960427;28;20477;-47
2022/11/18 09:55:18;;;;;;;4.03;2.00;;;9.90;99.90;;;;;;4972694;28;20019;-46
2022/11/18 09:57:49;;;;;;;3.50;2.83;;;10.00;99.90;;;;;;4972100;28;20031;-48
2022/11/18 10:00:25;;;;;;;2.42;2.22;;;10.20;99.90;;;;;;4972489;28;20019;-47
2022/11/18 10:03:01;;;;;;;6.03;2.85;;;10.30;99.90;;;;;;4971814;28;20446;-45
2022/11/18 10:05:27;;;;;;;;;;;10.40;99.90;;;;;;4958828;28;20105;-47
2022/11/18 10:08:21;;;;;;;4.88;1.95;;;10.40;99.90;;;;;;4953403;28;20441;-48
2022/11/18 10:10:53;;;;;;;2.30;1.95;;;10.50;99.90;;;;;;4953707;28;20155;-49
2022/11/18 10:13:32;;;;;;;2.22;2.03;;;10.50;99.90;;;;;;4952492;28;20046;-51
2022/11/18 10:16:20;;;;;;;2.85;2.17;;;10.60;99.90;;;;;;4953144;29;20035;-47
2022/11/18 10:18:56;;;;;;;5.65;1.88;;;10.60;99.90;;;;;;4941383;29;20109;-49
2022/11/18 10:21:46;;;;;;;5.53;1.95;;;10.50;99.90;;;;;;4953017;29;20034;-47
2022/11/18 10:24:19;;;;;;;2.08;1.88;;;10.40;99.90;;;;;;4952831;29;20032;-48
2022/11/18 10:26:44;;;;;;;3.70;2.75;;;10.40;99.90;;;;;;4953211;28;20051;-51
2022/11/18 10:29:10;;;;;;;1.67;1.58;;;10.40;99.90;;;;;;4953183;29;20077;-47
2022/11/18 10:32:06;;;;;;;5.40;2.00;;;10.40;99.90;;;;;;4952854;28;20043;-46
2022/11/18 10:34:34;;;;;;;1.83;1.73;;;10.40;99.90;;;;;;4936241;29;20081;-44
2022/11/18 10:37:05;;;;;;;1.77;1.67;;;10.50;99.90;;;;;;4953293;28;20035;-47
2022/11/18 10:39:31;;;;;;;4.60;1.80;;;10.50;99.90;;;;;;4972145;28;20515;-48
2022/11/18 10:42:05;;;;;;;3.00;1.60;;;10.40;99.90;;;;;;4966900;28;20031;-47
2022/11/18 10:44:39;;;;;;;5.13;2.78;;;10.40;99.90;;;;;;4954817;28;20019;-51
2022/11/18 10:47:22;;;;;;;66.07;49.95;;;10.40;99.90;;;;;;4970393;28;20015;-49
2022/11/18 10:49:47;;;;;;;7.03;3.22;;;10.50;99.90;;;;;;4969543;28;20387;-50
2022/11/18 10:52:14;;;;;;;3.50;1.80;;;10.50;99.90;;;;;;4970985;28;20031;-50
2022/11/18 10:54:41;;;;;;;2.88;1.60;;;10.50;99.90;;;;;;4977498;28;20131;-52
2022/11/18 10:57:22;;;;;;;3.60;1.80;;;10.50;99.90;;;;;;4971863;28;20419;-49
2022/11/18 10:59:55;;;;;;;1.88;1.60;;;10.60;99.90;;;;;;4972017;28;20046;-50
2022/11/18 11:02:40;;;;;;;1.60;1.50;;;10.70;99.90;;;;;;4970969;28;20031;-50
2022/11/18 11:05:22;;;;;;;3.53;2.13;;;10.80;99.90;;;;;;4972465;28;20027;-48
2022/11/18 11:08:05;;;;;;;4.78;2.50;;;11.00;99.90;;;;;;4959448;28;20373;-47
2022/11/18 11:10:31;;;;;;;3.97;2.17;;;10.90;99.90;;;;;;4966420;28;20034;-50
2022/11/18 11:13:02;;;;;;;45.42;30.70;;;10.90;99.90;;;;;;4975861;28;20093;-51
2022/11/18 11:15:40;;;;;;;19.85;11.25;;;10.90;99.90;;;;;;4976645;28;20097;-53
2022/11/18 11:20:56;;;;;;;2.85;1.92;;;10.80;99.90;;;;;;4956343;29;20062;-50
2022/11/18 11:23:25;;;;;;;2.50;1.48;;;10.80;99.90;;;;;;4955714;28;20456;-49
2022/11/18 11:26:00;;;;;;;3.38;1.92;;;10.80;99.90;;;;;;4956616;28;20054;-42
2022/11/18 11:28:37;;;;;;;2.28;1.77;;;10.80;99.90;;;;;;4956163;28;20023;-49
2022/11/18 11:31:23;;;;;;;1.88;1.60;;;10.80;99.90;;;;;;4955651;28;20499;-49
2022/11/18 11:34:04;;;;;;;2.03;1.83;;;10.80;99.90;;;;;;4955106;28;20035;-51
2022/11/18 11:37:07;;;;;;;3.47;1.95;;;10.90;99.90;;;;;;4955774;28;20095;-48
2022/11/18 11:39:47;;;;;;;2.50;1.90;;;11.00;99.90;;;;;;4955902;28;20082;-50
2022/11/18 11:42:23;;;;;;;1.80;1.65;;;11.00;99.90;;;;;;4955306;29;20039;-46
2022/11/18 11:44:51;;;;;;;;;;;11.10;99.90;;;;;;4973582;28;20023;-44
2022/11/18 11:50:17;;;;;;;2.50;2.00;;;11.30;99.90;;;;;;4974226;28;20510;-46
2022/11/18 11:53:12;;;;;;;3.50;1.90;;;11.40;99.90;;;;;;4973443;28;20053;-51
2022/11/18 11:56:04;;;;;;;1.83;1.67;;;11.50;99.90;;;;;;4974075;28;20026;-49
2022/11/18 11:58:57;;;;;;;2.88;2.67;;;11.60;99.90;;;;;;4974192;28;20043;-50
2022/11/18 12:01:32;;;;;;;3.80;2.08;;;11.60;99.90;;;;;;4974162;28;20070;-50
2022/11/18 12:04:18;;;;;;;2.50;2.28;;;11.60;99.90;;;;;;4973602;28;20430;-50
2022/11/18 12:06:48;;;;;;;2.55;2.35;;;11.60;99.90;;;;;;4959178;28;20034;-52
2022/11/18 12:09:31;;;;;;;2.95;1.80;;;11.60;99.90;;;;;;4974244;28;20055;-52
2022/11/18 12:12:33;;;;;;;2.28;1.70;;;11.70;99.90;;;;;;4973675;28;20041;-51
2022/11/18 12:14:56;;;;;;;4.63;1.63;;;11.80;99.90;;;;;;4973394;28;20451;-52
2022/11/18 12:17:29;;;;;;;2.65;1.35;;;11.80;99.90;;;;;;4972739;28;20032;-52
2022/11/18 12:19:55;;;;;;;1.80;1.70;;;11.80;99.90;;;;;;4962550;28;20029;-49
2022/11/18 12:22:21;;;;;;;2.58;1.50;;;11.70;99.90;;;;;;4961210;28;20031;-52
2022/11/18 12:24:46;;;;;;;3.38;2.13;;;11.70;99.90;;;;;;4968482;28;20073;-47
2022/11/18 12:27:22;;;;;;;4.38;2.30;;;11.60;99.90;;;;;;4973787;28;20113;-50
2022/11/18 12:29:48;;;;;;;3.05;2.10;;;11.60;99.90;;;;;;4973959;28;20023;-49
2022/11/18 12:32:35;;;;;;;5.57;2.88;;;11.60;99.90;;;;;;4972815;28;20100;-53
2022/11/18 12:35:22;;;;;;;4.60;2.72;;;11.50;99.90;;;;;;4975206;28;20030;-49
2022/11/18 12:37:50;;;;;;;5.05;2.78;;;11.40;99.90;;;;;;4973134;28;20035;-54
2022/11/18 12:40:35;;;;;;;3.33;3.00;;;11.40;99.90;;;;;;4972929;28;20023;-52
2022/11/18 12:45:53;;;;;;;3.08;2.47;;;11.20;99.90;;;;;;4964660;28;20103;-42
2022/11/18 12:48:35;;;;;;;8.05;3.08;;;11.10;99.90;;;;;;4970532;28;20078;-45
2022/11/18 12:51:39;;;;;;;2.83;2.55;;;11.00;99.90;;;;;;4973650;28;20161;-50
2022/11/18 12:54:22;;;;;;;6.85;3.25;;;11.00;99.90;;;;;;4972448;28;20400;-47
2022/11/18 12:56:48;;;;;;;3.40;2.50;;;11.10;99.90;;;;;;4973132;28;20097;-49
2022/11/18 12:59:14;;;;;;;3.67;2.65;;;11.20;99.90;;;;;;4968871;28;20109;-46
2022/11/18 13:01:39;;;;;;;5.18;3.08;;;11.20;99.90;;;;;;4973108;28;20639;-46
2022/11/18 13:04:14;;;;;;;4.22;3.03;;;11.30;99.90;;;;;;4971695;28;20041;-47
2022/11/18 13:06:41;;;;;;;5.25;2.63;;;11.30;99.90;;;;;;4954027;29;20024;-47
2022/11/18 13:09:28;;;;;;;2.90;2.70;;;11.50;99.90;;;;;;4954027;28;20480;-49
2022/11/18 13:11:57;;;;;;;4.57;2.58;;;11.60;99.90;;;;;;4953354;28;20498;-47
2022/11/18 13:20:35;;;;;;;6.78;1.20;;;11.90;99.90;;;;;;4973181;28;20423;-50
2022/11/18 13:26:18;;;;;;;14.82;9.98;;;11.90;99.90;;;;;;4973392;28;20513;-47
2022/11/18 13:28:49;;;;;;;17.80;7.40;;;11.90;99.90;;;;;;4967475;28;20026;-48
2022/11/18 13:31:24;;;;;;;2.97;1.30;;;12.00;99.90;;;;;;4991286;23;20046;-46